sensor_id;sensor_type;location;lat;lon;timestamp;pressure;altitude;pressure_sealevel;temperature;humidity
28079;BME280;15388;42.238;24.684;2022-07-21T00:01:13;99498.34;;;20.93;76.95
28079;BME280;15388;42.238;24.684;2022-07-21T00:03:39;99501.03;;;20.86;76.34
28079;BME280;15388;42.238;24.684;2022-07-21T00:06:04;99504.53;;;20.87;76.55
28079;BME280;15388;42.238;24.684;2022-07-21T00:08:30;99508.44;;;20.71;76.34
28079;BME280;15388;42.238;24.684;2022-07-21T00:10:56;99506.75;;;20.56;76.66
28079;BME280;15388;42.238;24.684;2022-07-21T00:13:21;99503.00;;;20.44;76.67
28079;BME280;15388;42.238;24.684;2022-07-21T00:15:46;99507.28;;;20.31;76.62
28079;BME280;15388;42.238;24.684;2022-07-21T00:18:12;99506.66;;;20.29;76.32
28079;BME280;15388;42.238;24.684;2022-07-21T00:20:37;99502.72;;;20.25;76.54
28079;BME280;15388;42.238;24.684;2022-07-21T00:23:02;99512.06;;;20.29;76.68
28079;BME280;15388;42.238;24.684;2022-07-21T00:25:28;99511.16;;;20.08;77.39
28079;BME280;15388;42.238;24.684;2022-07-21T00:27:54;99511.03;;;19.95;78.42
28079;BME280;15388;42.238;24.684;2022-07-21T00:30:19;99501.34;;;19.72;80.07
28079;BME280;15388;42.238;24.684;2022-07-21T00:32:44;99494.00;;;19.59;81.07
28079;BME280;15388;42.238;24.684;2022-07-21T00:35:10;99494.56;;;19.47;81.77
28079;BME280;15388;42.238;24.684;2022-07-21T00:37:36;99494.25;;;19.35;82.81
28079;BME280;15388;42.238;24.684;2022-07-21T00:40:02;99483.63;;;19.27;84.16
28079;BME280;15388;42.238;24.684;2022-07-21T00:42:29;99476.09;;;19.22;85.78
28079;BME280;15388;42.238;24.684;2022-07-21T00:44:55;99479.38;;;19.18;86.96
28079;BME280;15388;42.238;24.684;2022-07-21T00:47:21;99477.44;;;19.12;88.15
28079;BME280;15388;42.238;24.684;2022-07-21T00:49:47;99474.47;;;19.06;88.52
28079;BME280;15388;42.238;24.684;2022-07-21T00:52:12;99480.91;;;19.05;87.80
28079;BME280;15388;42.238;24.684;2022-07-21T00:54:38;99484.72;;;18.89;89.64
28079;BME280;15388;42.238;24.684;2022-07-21T00:57:03;99481.41;;;18.72;90.81
28079;BME280;15388;42.238;24.684;2022-07-21T00:59:29;99488.31;;;18.75;90.33
28079;BME280;15388;42.238;24.684;2022-07-21T01:01:55;99489.59;;;18.79;90.41
28079;BME280;15388;42.238;24.684;2022-07-21T01:04:20;99495.53;;;18.74;91.32
28079;BME280;15388;42.238;24.684;2022-07-21T01:06:45;99493.72;;;18.59;94.18
28079;BME280;15388;42.238;24.684;2022-07-21T01:09:10;99488.22;;;18.68;95.11
28079;BME280;15388;42.238;24.684;2022-07-21T01:11:36;99498.66;;;18.78;95.43
28079;BME280;15388;42.238;24.684;2022-07-21T01:14:02;99498.38;;;18.66;97.41
28079;BME280;15388;42.238;24.684;2022-07-21T01:16:27;99496.13;;;18.54;99.40
28079;BME280;15388;42.238;24.684;2022-07-21T01:18:52;99495.38;;;18.61;99.17
28079;BME280;15388;42.238;24.684;2022-07-21T01:21:37;99500.56;;;18.40;100.00
28079;BME280;15388;42.238;24.684;2022-07-21T01:24:04;99498.47;;;18.20;100.00
28079;BME280;15388;42.238;24.684;2022-07-21T01:26:30;99496.97;;;18.18;100.00
28079;BME280;15388;42.238;24.684;2022-07-21T01:28:56;99494.16;;;17.66;100.00
28079;BME280;15388;42.238;24.684;2022-07-21T01:31:22;99494.84;;;17.68;100.00
28079;BME280;15388;42.238;24.684;2022-07-21T01:33:47;99490.00;;;17.63;100.00
28079;BME280;15388;42.238;24.684;2022-07-21T01:36:13;99484.06;;;17.83;100.00
28079;BME280;15388;42.238;24.684;2022-07-21T01:38:38;99483.88;;;18.00;100.00
28079;BME280;15388;42.238;24.684;2022-07-21T01:41:22;99478.78;;;18.20;100.00
28079;BME280;15388;42.238;24.684;2022-07-21T01:44:03;99477.53;;;18.38;100.00
28079;BME280;15388;42.238;24.684;2022-07-21T01:46:31;99484.19;;;18.57;100.00
28079;BME280;15388;42.238;24.684;2022-07-21T01:48:57;99478.91;;;18.70;98.11
28079;BME280;15388;42.238;24.684;2022-07-21T01:51:22;99484.38;;;18.77;98.51
28079;BME280;15388;42.238;24.684;2022-07-21T01:53:48;99483.00;;;18.66;98.69
28079;BME280;15388;42.238;24.684;2022-07-21T01:56:13;99473.44;;;18.42;99.91
28079;BME280;15388;42.238;24.684;2022-07-21T01:58:38;99476.88;;;18.36;100.00
28079;BME280;15388;42.238;24.684;2022-07-21T02:01:03;99461.94;;;18.33;100.00
28079;BME280;15388;42.238;24.684;2022-07-21T02:03:29;99475.16;;;18.28;100.00
28079;BME280;15388;42.238;24.684;2022-07-21T02:06:00;99475.63;;;18.01;100.00
28079;BME280;15388;42.238;24.684;2022-07-21T02:08:26;99485.25;;;17.65;100.00
28079;BME280;15388;42.238;24.684;2022-07-21T02:10:51;99484.69;;;17.70;100.00
28079;BME280;15388;42.238;24.684;2022-07-21T02:13:16;99484.81;;;17.77;100.00
28079;BME280;15388;42.238;24.684;2022-07-21T02:15:41;99481.00;;;17.71;100.00
28079;BME280;15388;42.238;24.684;2022-07-21T02:18:07;99478.97;;;17.73;100.00
28079;BME280;15388;42.238;24.684;2022-07-21T02:20:32;99477.84;;;17.82;100.00
28079;BME280;15388;42.238;24.684;2022-07-21T02:22:57;99479.78;;;17.89;100.00
28079;BME280;15388;42.238;24.684;2022-07-21T02:25:22;99471.44;;;17.99;100.00
28079;BME280;15388;42.238;24.684;2022-07-21T02:27:48;99474.31;;;17.97;100.00
28079;BME280;15388;42.238;24.684;2022-07-21T02:30:13;99478.03;;;17.66;100.00
28079;BME280;15388;42.238;24.684;2022-07-21T02:32:38;99471.13;;;17.48;100.00
28079;BME280;15388;42.238;24.684;2022-07-21T02:35:04;99469.84;;;17.44;100.00
28079;BME280;15388;42.238;24.684;2022-07-21T02:37:30;99474.81;;;17.32;100.00
28079;BME280;15388;42.238;24.684;2022-07-21T02:39:55;99482.13;;;17.23;100.00
28079;BME280;15388;42.238;24.684;2022-07-21T02:42:20;99473.47;;;17.13;100.00
28079;BME280;15388;42.238;24.684;2022-07-21T02:44:45;99472.16;;;17.09;100.00
28079;BME280;15388;42.238;24.684;2022-07-21T02:47:11;99478.13;;;17.19;100.00
28079;BME280;15388;42.238;24.684;2022-07-21T02:49:36;99476.47;;;17.18;100.00
28079;BME280;15388;42.238;24.684;2022-07-21T02:52:02;99476.22;;;17.04;100.00
28079;BME280;15388;42.238;24.684;2022-07-21T02:54:27;99477.72;;;16.84;100.00
28079;BME280;15388;42.238;24.684;2022-07-21T02:56:52;99475.19;;;16.82;100.00
28079;BME280;15388;42.238;24.684;2022-07-21T02:59:17;99480.28;;;16.77;100.00
28079;BME280;15388;42.238;24.684;2022-07-21T03:01:43;99479.56;;;16.60;100.00
28079;BME280;15388;42.238;24.684;2022-07-21T03:04:08;99480.88;;;16.64;100.00
28079;BME280;15388;42.238;24.684;2022-07-21T03:06:33;99480.38;;;16.60;100.00
28079;BME280;15388;42.238;24.684;2022-07-21T03:08:59;99475.41;;;16.49;100.00
28079;BME280;15388;42.238;24.684;2022-07-21T03:11:24;99472.66;;;16.34;100.00
28079;BME280;15388;42.238;24.684;2022-07-21T03:13:50;99477.13;;;16.41;100.00
28079;BME280;15388;42.238;24.684;2022-07-21T03:16:15;99483.00;;;16.45;100.00
28079;BME280;15388;42.238;24.684;2022-07-21T03:18:41;99475.81;;;16.37;100.00
28079;BME280;15388;42.238;24.684;2022-07-21T03:21:06;99479.38;;;16.29;100.00
28079;BME280;15388;42.238;24.684;2022-07-21T03:23:32;99483.41;;;16.34;100.00
28079;BME280;15388;42.238;24.684;2022-07-21T03:25:57;99480.06;;;16.32;100.00
28079;BME280;15388;42.238;24.684;2022-07-21T03:28:22;99472.00;;;16.32;100.00
28079;BME280;15388;42.238;24.684;2022-07-21T03:30:48;99475.31;;;16.42;100.00
28079;BME280;15388;42.238;24.684;2022-07-21T03:33:13;99472.00;;;16.32;100.00
28079;BME280;15388;42.238;24.684;2022-07-21T03:35:38;99475.72;;;16.22;100.00
28079;BME280;15388;42.238;24.684;2022-07-21T03:38:04;99479.53;;;15.96;100.00
28079;BME280;15388;42.238;24.684;2022-07-21T03:40:30;99477.94;;;16.19;100.00
28079;BME280;15388;42.238;24.684;2022-07-21T03:42:58;99472.00;;;16.32;100.00
28079;BME280;15388;42.238;24.684;2022-07-21T03:45:24;99478.34;;;16.39;100.00
28079;BME280;15388;42.238;24.684;2022-07-21T03:47:49;99477.66;;;16.37;100.00
28079;BME280;15388;42.238;24.684;2022-07-21T03:50:15;99476.31;;;16.41;100.00
28079;BME280;15388;42.238;24.684;2022-07-21T03:52:42;99481.31;;;16.44;100.00
28079;BME280;15388;42.238;24.684;2022-07-21T03:55:07;99487.34;;;16.46;100.00
28079;BME280;15388;42.238;24.684;2022-07-21T03:57:37;99483.31;;;16.50;100.00
28079;BME280;15388;42.238;24.684;2022-07-21T04:00:03;99483.91;;;16.61;100.00
28079;BME280;15388;42.238;24.684;2022-07-21T04:02:29;99488.53;;;16.75;100.00
28079;BME280;15388;42.238;24.684;2022-07-21T04:04:54;99495.81;;;16.90;100.00
28079;BME280;15388;42.238;24.684;2022-07-21T04:07:20;99491.31;;;17.05;100.00
28079;BME280;15388;42.238;24.684;2022-07-21T04:09:45;99498.94;;;17.25;100.00
28079;BME280;15388;42.238;24.684;2022-07-21T04:12:10;99494.13;;;17.36;100.00
28079;BME280;15388;42.238;24.684;2022-07-21T04:14:35;99493.31;;;17.50;100.00
28079;BME280;15388;42.238;24.684;2022-07-21T04:17:01;99493.22;;;17.59;100.00
28079;BME280;15388;42.238;24.684;2022-07-21T04:19:26;99485.91;;;17.67;100.00
28079;BME280;15388;42.238;24.684;2022-07-21T04:21:53;99485.00;;;17.75;100.00
28079;BME280;15388;42.238;24.684;2022-07-21T04:24:18;99485.81;;;17.91;100.00
28079;BME280;15388;42.238;24.684;2022-07-21T04:26:43;99484.09;;;18.13;100.00
28079;BME280;15388;42.238;24.684;2022-07-21T04:29:09;99481.34;;;18.28;100.00
28079;BME280;15388;42.238;24.684;2022-07-21T04:31:34;99486.47;;;18.38;100.00
28079;BME280;15388;42.238;24.684;2022-07-21T04:33:59;99485.13;;;18.49;100.00
28079;BME280;15388;42.238;24.684;2022-07-21T04:36:24;99485.91;;;18.65;100.00
28079;BME280;15388;42.238;24.684;2022-07-21T04:38:50;99478.59;;;18.80;100.00
28079;BME280;15388;42.238;24.684;2022-07-21T04:41:15;99474.63;;;18.98;97.79
28079;BME280;15388;42.238;24.684;2022-07-21T04:43:40;99479.63;;;19.23;94.85
28079;BME280;15388;42.238;24.684;2022-07-21T04:46:06;99470.59;;;19.38;92.58
28079;BME280;15388;42.238;24.684;2022-07-21T04:48:32;99468.66;;;19.53;91.48
28079;BME280;15388;42.238;24.684;2022-07-21T04:50:57;99474.75;;;19.69;89.86
28079;BME280;15388;42.238;24.684;2022-07-21T04:53:23;99480.84;;;19.84;87.56
28079;BME280;15388;42.238;24.684;2022-07-21T04:55:48;99477.47;;;20.04;83.73
28079;BME280;15388;42.238;24.684;2022-07-21T04:58:15;99477.97;;;20.28;81.73
28079;BME280;15388;42.238;24.684;2022-07-21T05:00:40;99485.09;;;20.43;80.12
28079;BME280;15388;42.238;24.684;2022-07-21T05:03:05;99479.31;;;20.59;78.95
28079;BME280;15388;42.238;24.684;2022-07-21T05:05:31;99483.09;;;20.79;76.85
28079;BME280;15388;42.238;24.684;2022-07-21T05:07:56;99486.06;;;20.91;75.70
28079;BME280;15388;42.238;24.684;2022-07-21T05:10:21;99489.59;;;21.05;73.16
28079;BME280;15388;42.238;24.684;2022-07-21T05:12:47;99500.00;;;21.15;71.51
28079;BME280;15388;42.238;24.684;2022-07-21T05:15:12;99498.78;;;21.31;70.09
28079;BME280;15388;42.238;24.684;2022-07-21T05:17:37;99491.69;;;21.36;69.89
28079;BME280;15388;42.238;24.684;2022-07-21T05:20:03;99489.41;;;21.47;69.26
28079;BME280;15388;42.238;24.684;2022-07-21T05:22:29;99488.56;;;21.53;68.94
28079;BME280;15388;42.238;24.684;2022-07-21T05:24:54;99488.56;;;21.53;69.10
28079;BME280;15388;42.238;24.684;2022-07-21T05:27:19;99481.44;;;21.66;70.11
28079;BME280;15388;42.238;24.684;2022-07-21T05:29:45;99486.03;;;21.79;70.56
28079;BME280;15388;42.238;24.684;2022-07-21T05:32:10;99489.75;;;21.91;70.66
28079;BME280;15388;42.238;24.684;2022-07-21T05:34:35;99483.03;;;22.00;70.41
28079;BME280;15388;42.238;24.684;2022-07-21T05:37:01;99480.50;;;22.12;69.70
28079;BME280;15388;42.238;24.684;2022-07-21T05:39:26;99484.66;;;22.22;69.47
28079;BME280;15388;42.238;24.684;2022-07-21T05:41:51;99486.06;;;22.31;70.03
28079;BME280;15388;42.238;24.684;2022-07-21T05:44:16;99480.78;;;22.50;66.91
28079;BME280;15388;42.238;24.684;2022-07-21T05:46:42;99482.81;;;22.61;67.12
28079;BME280;15388;42.238;24.684;2022-07-21T05:49:07;99485.44;;;22.75;66.98
28079;BME280;15388;42.238;24.684;2022-07-21T05:51:32;99479.75;;;22.83;68.25
28079;BME280;15388;42.238;24.684;2022-07-21T05:53:58;99472.13;;;22.99;66.64
28079;BME280;15388;42.238;24.684;2022-07-21T05:56:23;99475.41;;;23.08;64.85
28079;BME280;15388;42.238;24.684;2022-07-21T05:58:48;99469.91;;;23.14;64.98
28079;BME280;15388;42.238;24.684;2022-07-21T06:01:13;99469.78;;;23.28;67.27
28079;BME280;15388;42.238;24.684;2022-07-21T06:03:42;99469.97;;;23.33;66.44
28079;BME280;15388;42.238;24.684;2022-07-21T06:06:08;99464.88;;;23.44;66.24
28079;BME280;15388;42.238;24.684;2022-07-21T06:08:33;99466.50;;;23.70;66.61
28079;BME280;15388;42.238;24.684;2022-07-21T06:10:59;99465.06;;;23.86;66.98
28079;BME280;15388;42.238;24.684;2022-07-21T06:13:24;99470.03;;;24.08;63.47
28079;BME280;15388;42.238;24.684;2022-07-21T06:15:49;99464.13;;;24.30;63.88
28079;BME280;15388;42.238;24.684;2022-07-21T06:18:15;99454.66;;;24.51;61.95
28079;BME280;15388;42.238;24.684;2022-07-21T06:20:40;99447.81;;;24.61;58.87
28079;BME280;15388;42.238;24.684;2022-07-21T06:23:06;99454.13;;;24.85;60.21
28079;BME280;15388;42.238;24.684;2022-07-21T06:25:31;99448.06;;;25.02;56.28
28079;BME280;15388;42.238;24.684;2022-07-21T06:27:56;99443.81;;;25.18;58.23
28079;BME280;15388;42.238;24.684;2022-07-21T06:30:21;99442.50;;;25.44;56.18
28079;BME280;15388;42.238;24.684;2022-07-21T06:32:47;99446.50;;;25.54;53.64
28079;BME280;15388;42.238;24.684;2022-07-21T06:35:12;99446.91;;;25.69;52.89
28079;BME280;15388;42.238;24.684;2022-07-21T06:37:37;99445.91;;;25.76;51.47
28079;BME280;15388;42.238;24.684;2022-07-21T06:40:03;99441.66;;;25.80;52.79
28079;BME280;15388;42.238;24.684;2022-07-21T06:42:28;99443.06;;;25.94;51.58
28079;BME280;15388;42.238;24.684;2022-07-21T06:44:53;99442.75;;;26.08;52.23
28079;BME280;15388;42.238;24.684;2022-07-21T06:47:19;99431.56;;;26.22;51.26
28079;BME280;15388;42.238;24.684;2022-07-21T06:49:44;99425.16;;;26.28;50.80
28079;BME280;15388;42.238;24.684;2022-07-21T06:52:09;99433.56;;;26.38;50.99
28079;BME280;15388;42.238;24.684;2022-07-21T06:54:35;99428.84;;;26.51;50.23
28079;BME280;15388;42.238;24.684;2022-07-21T06:57:00;99421.44;;;26.63;48.88
28079;BME280;15388;42.238;24.684;2022-07-21T06:59:25;99420.13;;;26.83;49.57
28079;BME280;15388;42.238;24.684;2022-07-21T07:01:51;99416.03;;;26.98;48.06
28079;BME280;15388;42.238;24.684;2022-07-21T07:04:16;99413.03;;;27.16;49.38
28079;BME280;15388;42.238;24.684;2022-07-21T07:06:41;99415.47;;;27.35;48.23
28079;BME280;15388;42.238;24.684;2022-07-21T07:09:06;99405.31;;;27.53;45.91
28079;BME280;15388;42.238;24.684;2022-07-21T07:11:32;99395.63;;;27.62;44.11
28079;BME280;15388;42.238;24.684;2022-07-21T07:13:59;99401.81;;;27.75;45.23
28079;BME280;15388;42.238;24.684;2022-07-21T07:16:24;99393.72;;;27.85;45.62
28079;BME280;15388;42.238;24.684;2022-07-21T07:18:49;99396.06;;;27.98;43.29
28079;BME280;15388;42.238;24.684;2022-07-21T07:21:15;99391.84;;;28.13;44.89
28079;BME280;15388;42.238;24.684;2022-07-21T07:23:40;99393.59;;;28.25;42.36
28079;BME280;15388;42.238;24.684;2022-07-21T07:26:06;99385.56;;;28.40;43.52
28079;BME280;15388;42.238;24.684;2022-07-21T07:28:32;99381.31;;;28.55;43.42
28079;BME280;15388;42.238;24.684;2022-07-21T07:30:57;99386.38;;;28.68;42.82
28079;BME280;15388;42.238;24.684;2022-07-21T07:33:22;99380.13;;;28.78;42.17
28079;BME280;15388;42.238;24.684;2022-07-21T07:35:49;99379.94;;;28.90;40.88
28079;BME280;15388;42.238;24.684;2022-07-21T07:38:15;99386.59;;;28.94;41.40
28079;BME280;15388;42.238;24.684;2022-07-21T07:40:40;99392.19;;;29.15;41.57
28079;BME280;15388;42.238;24.684;2022-07-21T07:43:06;99387.88;;;29.24;41.28
28079;BME280;15388;42.238;24.684;2022-07-21T07:45:32;99385.69;;;29.27;40.92
28079;BME280;15388;42.238;24.684;2022-07-21T07:47:57;99385.75;;;29.37;41.36
28079;BME280;15388;42.238;24.684;2022-07-21T07:50:22;99372.44;;;29.56;41.36
28079;BME280;15388;42.238;24.684;2022-07-21T07:52:48;99360.13;;;29.59;41.21
28079;BME280;15388;42.238;24.684;2022-07-21T07:55:13;99372.78;;;29.81;40.33
28079;BME280;15388;42.238;24.684;2022-07-21T07:57:39;99366.25;;;29.87;40.65
28079;BME280;15388;42.238;24.684;2022-07-21T08:00:06;99358.63;;;30.05;40.60
28079;BME280;15388;42.238;24.684;2022-07-21T08:02:33;99367.41;;;30.12;39.64
28079;BME280;15388;42.238;24.684;2022-07-21T08:04:58;99358.94;;;30.24;39.19
28079;BME280;15388;42.238;24.684;2022-07-21T08:07:24;99359.22;;;30.38;39.79
28079;BME280;15388;42.238;24.684;2022-07-21T08:09:49;99354.84;;;30.53;39.34
28079;BME280;15388;42.238;24.684;2022-07-21T08:12:14;99353.19;;;30.67;38.64
28079;BME280;15388;42.238;24.684;2022-07-21T08:14:39;99345.22;;;30.81;38.71
28079;BME280;15388;42.238;24.684;2022-07-21T08:17:05;99342.47;;;30.92;38.42
28079;BME280;15388;42.238;24.684;2022-07-21T08:19:30;99345.47;;;31.00;37.83
28079;BME280;15388;42.238;24.684;2022-07-21T08:21:55;99347.63;;;31.14;38.95
28079;BME280;15388;42.238;24.684;2022-07-21T08:24:20;99335.50;;;31.25;37.26
28079;BME280;15388;42.238;24.684;2022-07-21T08:26:46;99335.47;;;31.31;37.05
28079;BME280;15388;42.238;24.684;2022-07-21T08:29:11;99333.81;;;31.45;37.57
28079;BME280;15388;42.238;24.684;2022-07-21T08:31:37;99334.81;;;31.65;36.52
28079;BME280;15388;42.238;24.684;2022-07-21T08:34:02;99333.03;;;31.85;36.36
28079;BME280;15388;42.238;24.684;2022-07-21T08:36:27;99329.75;;;31.93;35.58
28079;BME280;15388;42.238;24.684;2022-07-21T08:38:52;99332.66;;;32.12;35.92
28079;BME280;15388;42.238;24.684;2022-07-21T08:41:18;99329.19;;;32.31;34.30
28079;BME280;15388;42.238;24.684;2022-07-21T08:43:43;99329.78;;;32.23;33.41
28079;BME280;15388;42.238;24.684;2022-07-21T08:46:09;99325.53;;;32.41;35.51
28079;BME280;15388;42.238;24.684;2022-07-21T08:48:35;99330.19;;;32.46;32.79
28079;BME280;15388;42.238;24.684;2022-07-21T08:51:01;99320.25;;;32.50;33.21
28079;BME280;15388;42.238;24.684;2022-07-21T08:53:26;99316.41;;;32.46;32.71
28079;BME280;15388;42.238;24.684;2022-07-21T08:55:53;99319.34;;;32.60;33.40
28079;BME280;15388;42.238;24.684;2022-07-21T08:58:19;99308.44;;;32.74;33.56
28079;BME280;15388;42.238;24.684;2022-07-21T09:00:46;99313.06;;;32.84;30.86
28079;BME280;15388;42.238;24.684;2022-07-21T09:03:13;99312.69;;;32.90;30.69
28079;BME280;15388;42.238;24.684;2022-07-21T09:05:39;99308.00;;;32.91;31.16
28079;BME280;15388;42.238;24.684;2022-07-21T09:08:04;99307.75;;;33.17;30.98
28079;BME280;15388;42.238;24.684;2022-07-21T09:10:30;99303.16;;;33.32;30.11
28079;BME280;15388;42.238;24.684;2022-07-21T09:12:57;99300.63;;;33.54;30.01
28079;BME280;15388;42.238;24.684;2022-07-21T09:15:24;99302.03;;;33.76;32.11
28079;BME280;15388;42.238;24.684;2022-07-21T09:20:49;99302.44;;;34.03;31.29
28079;BME280;15388;42.238;24.684;2022-07-21T09:23:15;99288.22;;;34.15;30.00
28079;BME280;15388;42.238;24.684;2022-07-21T09:25:43;99284.34;;;34.16;29.09
28079;BME280;15388;42.238;24.684;2022-07-21T09:28:19;99282.91;;;34.18;29.53
28079;BME280;15388;42.238;24.684;2022-07-21T09:30:59;99277.38;;;34.18;28.83
28079;BME280;15388;42.238;24.684;2022-07-21T09:33:27;99288.25;;;34.29;29.46
28079;BME280;15388;42.238;24.684;2022-07-21T09:38:18;99275.28;;;34.29;28.50
28079;BME280;15388;42.238;24.684;2022-07-21T09:40:47;99271.94;;;34.47;28.42
28079;BME280;15388;42.238;24.684;2022-07-21T09:43:27;99271.59;;;34.67;28.49
28079;BME280;15388;42.238;24.684;2022-07-21T09:45:53;99266.47;;;34.89;28.45
28079;BME280;15388;42.238;24.684;2022-07-21T09:48:32;99269.25;;;35.03;27.28
28079;BME280;15388;42.238;24.684;2022-07-21T09:50:57;99274.47;;;35.04;27.75
28079;BME280;15388;42.238;24.684;2022-07-21T09:56:13;99274.66;;;35.22;27.56
28079;BME280;15388;42.238;24.684;2022-07-21T09:58:39;99265.47;;;34.85;26.66
28079;BME280;15388;42.238;24.684;2022-07-21T10:01:05;99269.56;;;35.01;26.95
28079;BME280;15388;42.238;24.684;2022-07-21T10:03:30;99269.84;;;35.14;27.61
28079;BME280;15388;42.238;24.684;2022-07-21T10:05:55;99262.59;;;35.32;27.31
28079;BME280;15388;42.238;24.684;2022-07-21T10:08:21;99247.47;;;35.52;27.95
28079;BME280;15388;42.238;24.684;2022-07-21T10:10:46;99263.84;;;35.63;26.66
28079;BME280;15388;42.238;24.684;2022-07-21T10:13:11;99256.22;;;35.31;27.60
28079;BME280;15388;42.238;24.684;2022-07-21T10:15:37;99248.84;;;35.41;26.86
28079;BME280;15388;42.238;24.684;2022-07-21T10:18:03;99248.84;;;35.41;26.57
28079;BME280;15388;42.238;24.684;2022-07-21T10:20:31;99245.50;;;35.53;25.80
28079;BME280;15388;42.238;24.684;2022-07-21T10:23:12;99253.13;;;35.47;26.36
28079;BME280;15388;42.238;24.684;2022-07-21T10:25:38;99252.25;;;35.61;26.24
28079;BME280;15388;42.238;24.684;2022-07-21T10:33:06;99233.78;;;36.16;26.55
28079;BME280;15388;42.238;24.684;2022-07-21T10:35:32;99231.75;;;36.53;26.59
28079;BME280;15388;42.238;24.684;2022-07-21T10:37:58;99218.88;;;36.98;26.15
28079;BME280;15388;42.238;24.684;2022-07-21T10:45:36;99214.84;;;37.93;26.38
28079;BME280;15388;42.238;24.684;2022-07-21T10:48:03;99209.09;;;38.16;24.78
28079;BME280;15388;42.238;24.684;2022-07-21T10:50:29;99210.56;;;38.22;24.36
28079;BME280;15388;42.238;24.684;2022-07-21T10:52:56;99207.13;;;38.25;23.83
28079;BME280;15388;42.238;24.684;2022-07-21T10:55:22;99205.97;;;38.26;24.21
28079;BME280;15388;42.238;24.684;2022-07-21T11:00:46;99196.59;;;38.79;23.62
28079;BME280;15388;42.238;24.684;2022-07-21T11:08:30;99190.81;;;38.93;22.90
28079;BME280;15388;42.238;24.684;2022-07-21T11:10:58;99189.72;;;39.06;23.60
28079;BME280;15388;42.238;24.684;2022-07-21T11:13:32;99190.09;;;39.26;23.68
28079;BME280;15388;42.238;24.684;2022-07-21T11:16:16;99191.66;;;39.15;22.97
28079;BME280;15388;42.238;24.684;2022-07-21T11:18:42;99191.00;;;39.18;23.20
28079;BME280;15388;42.238;24.684;2022-07-21T11:26:01;99193.81;;;37.56;23.36
28079;BME280;15388;42.238;24.684;2022-07-21T11:28:26;99191.69;;;37.27;24.24
28079;BME280;15388;42.238;24.684;2022-07-21T11:33:37;99182.41;;;37.67;23.55
28079;BME280;15388;42.238;24.684;2022-07-21T11:36:03;99181.41;;;37.45;23.47
28079;BME280;15388;42.238;24.684;2022-07-21T11:38:28;99181.66;;;36.81;24.48
28079;BME280;15388;42.238;24.684;2022-07-21T11:40:53;99182.97;;;36.75;24.30
28079;BME280;15388;42.238;24.684;2022-07-21T11:43:18;99179.31;;;36.66;25.31
28079;BME280;15388;42.238;24.684;2022-07-21T11:45:51;99170.13;;;36.48;25.65
28079;BME280;15388;42.238;24.684;2022-07-21T11:48:29;99175.13;;;36.77;24.34
28079;BME280;15388;42.238;24.684;2022-07-21T11:51:01;99167.34;;;36.97;23.39
28079;BME280;15388;42.238;24.684;2022-07-21T11:53:27;99167.69;;;37.04;23.67
28079;BME280;15388;42.238;24.684;2022-07-21T11:55:53;99160.22;;;37.40;23.87
28079;BME280;15388;42.238;24.684;2022-07-21T11:58:19;99165.75;;;37.67;22.97
28079;BME280;15388;42.238;24.684;2022-07-21T12:00:44;99167.38;;;37.68;22.80
28079;BME280;15388;42.238;24.684;2022-07-21T12:03:11;99162.13;;;37.57;23.58
28079;BME280;15388;42.238;24.684;2022-07-21T12:05:38;99150.47;;;38.00;22.45
28079;BME280;15388;42.238;24.684;2022-07-21T12:08:04;99148.38;;;38.44;23.86
28079;BME280;15388;42.238;24.684;2022-07-21T12:10:29;99158.13;;;38.90;22.13
28079;BME280;15388;42.238;24.684;2022-07-21T12:12:59;99148.19;;;39.10;22.69
28079;BME280;15388;42.238;24.684;2022-07-21T12:15:25;99158.81;;;39.29;21.60
28079;BME280;15388;42.238;24.684;2022-07-21T12:17:57;99142.25;;;39.33;22.79
28079;BME280;15388;42.238;24.684;2022-07-21T12:20:36;99143.59;;;39.48;21.88
28079;BME280;15388;42.238;24.684;2022-07-21T12:23:18;99143.28;;;39.83;22.02
28079;BME280;15388;42.238;24.684;2022-07-21T12:25:44;99137.53;;;40.01;21.25
28079;BME280;15388;42.238;24.684;2022-07-21T12:28:09;99138.63;;;39.54;20.79
28079;BME280;15388;42.238;24.684;2022-07-21T12:30:38;99137.25;;;38.05;21.86
28079;BME280;15388;42.238;24.684;2022-07-21T12:33:10;99138.66;;;37.55;22.62
28079;BME280;15388;42.238;24.684;2022-07-21T12:35:40;99127.03;;;37.62;22.13
28079;BME280;15388;42.238;24.684;2022-07-21T12:38:07;99128.22;;;37.69;22.98
28079;BME280;15388;42.238;24.684;2022-07-21T12:40:34;99126.88;;;37.84;22.39
28079;BME280;15388;42.238;24.684;2022-07-21T12:43:32;99122.22;;;37.32;22.67
28079;BME280;15388;42.238;24.684;2022-07-21T12:48:18;99124.13;;;37.14;23.44
28079;BME280;15388;42.238;24.684;2022-07-21T12:51:06;99130.84;;;37.30;23.24
28079;BME280;15388;42.238;24.684;2022-07-21T12:53:29;99122.34;;;37.00;22.52
28079;BME280;15388;42.238;24.684;2022-07-21T12:55:55;99121.88;;;37.33;22.72
28079;BME280;15388;42.238;24.684;2022-07-21T12:58:21;99119.38;;;37.76;22.38
28079;BME280;15388;42.238;24.684;2022-07-21T13:00:47;99123.19;;;37.36;21.85
28079;BME280;15388;42.238;24.684;2022-07-21T13:03:12;99107.09;;;37.95;23.25
28079;BME280;15388;42.238;24.684;2022-07-21T13:05:38;99113.75;;;37.94;22.37
28079;BME280;15388;42.238;24.684;2022-07-21T13:08:03;99105.88;;;37.57;22.71
28079;BME280;15388;42.238;24.684;2022-07-21T13:10:29;99108.44;;;37.80;22.37
28079;BME280;15388;42.238;24.684;2022-07-21T13:12:54;99107.75;;;37.92;22.83
28079;BME280;15388;42.238;24.684;2022-07-21T13:15:19;99101.63;;;38.07;22.89
28079;BME280;15388;42.238;24.684;2022-07-21T13:17:45;99102.78;;;37.67;23.17
28079;BME280;15388;42.238;24.684;2022-07-21T13:20:10;99095.25;;;38.07;23.31